Time;durP1;ratioP1;P1;durP2;ratioP2;P2;SDS_P1;SDS_P2;PMS_P1;PMS_P2;Temp;Humidity;BMP_temperature;BMP_pressure;BME280_temperature;BME280_humidity;BME280_pressure;Samples;Min_cycle;Max_cycle;Signal;HPM_P1;HPM_P2
2022/06/29 04:05:12;;;;;;;6.33;5.70;;;16.70;99.90;;;;;;5167397;22;20485;-73
2022/06/29 04:07:38;;;;;;;7.43;5.57;;;16.80;99.90;;;;;;5033402;28;20921;-71
2022/06/29 04:10:04;;;;;;;9.80;7.27;;;16.80;99.90;;;;;;5033402;28;20423;-71
2022/06/29 04:12:34;;;;;;;10.90;5.63;;;16.80;99.90;;;;;;5032283;28;20683;-71
2022/06/29 04:15:00;;;;;;;6.60;5.93;;;16.90;99.90;;;;;;5033326;28;20437;-72
2022/06/29 04:17:26;;;;;;;10.37;6.70;;;17.00;99.90;;;;;;5024801;28;20414;-71
2022/06/29 04:19:52;;;;;;;7.10;6.07;;;17.10;99.90;;;;;;5013462;28;20421;-71
2022/06/29 04:22:19;;;;;;;5.77;5.20;;;17.30;99.90;;;;;;5013489;28;20534;-70
2022/06/29 04:24:45;;;;;;;7.67;5.67;;;17.40;99.90;;;;;;5013306;28;20490;-70
2022/06/29 04:27:11;;;;;;;5.50;5.00;;;17.60;99.90;;;;;;5013736;28;20757;-70
2022/06/29 04:29:36;;;;;;;5.87;5.33;;;17.70;99.90;;;;;;5022173;28;20209;-69
2022/06/29 04:32:03;;;;;;;6.00;5.00;;;17.80;99.90;;;;;;5034451;28;20488;-69
2022/06/29 04:34:29;;;;;;;5.60;5.13;;;17.90;99.90;;;;;;5035806;28;20192;-70
2022/06/29 04:36:55;;;;;;;6.00;5.43;;;18.00;99.90;;;;;;5019418;28;20448;-70
2022/06/29 04:39:20;;;;;;;5.07;4.20;;;18.10;99.90;;;;;;5037188;28;20496;-69
2022/06/29 04:41:47;;;;;;;5.23;4.73;;;18.20;99.90;;;;;;5037203;28;20194;-70
2022/06/29 04:44:13;;;;;;;5.10;4.70;;;18.50;99.90;;;;;;5018874;28;20232;-69
2022/06/29 04:46:38;;;;;;;4.97;4.57;;;18.60;99.90;;;;;;5037250;28;20440;-69
2022/06/29 04:49:04;;;;;;;5.50;5.10;;;18.70;99.90;;;;;;5037002;28;20443;-69
2022/06/29 04:51:32;;;;;;;4.80;4.40;;;18.80;99.90;;;;;;5036875;28;20202;-69
2022/06/29 04:53:59;;;;;;;4.50;4.10;;;18.80;99.90;;;;;;5036470;28;20424;-69
2022/06/29 04:56:27;;;;;;;4.63;4.20;;;18.70;99.90;;;;;;5036897;28;20417;-69
2022/06/29 04:58:54;;;;;;;4.90;4.50;;;18.70;99.90;;;;;;5036804;28;20401;-70
2022/06/29 05:01:24;;;;;;;5.13;4.60;;;18.60;99.90;;;;;;5036392;28;21013;-69
2022/06/29 05:03:50;;;;;;;5.30;4.80;;;18.60;99.90;;;;;;5030396;28;20445;-69
2022/06/29 05:06:16;;;;;;;5.13;4.63;;;18.60;99.90;;;;;;5016212;28;20436;-70
2022/06/29 05:08:42;;;;;;;4.97;4.57;;;18.60;99.90;;;;;;5016445;28;20437;-70
2022/06/29 05:11:08;;;;;;;7.50;4.87;;;18.60;99.90;;;;;;4999199;28;20396;-70
2022/06/29 05:13:33;;;;;;;4.47;4.17;;;18.50;99.90;;;;;;5016208;28;20191;-77
2022/06/29 05:15:59;;;;;;;7.17;5.60;;;18.40;99.90;;;;;;5016680;28;20377;-75
2022/06/29 05:18:26;;;;;;;5.23;4.83;;;18.40;99.90;;;;;;4998466;28;20178;-76
2022/06/29 05:20:51;;;;;;;5.87;5.37;;;18.50;99.90;;;;;;5016273;28;20259;-73
2022/06/29 05:23:18;;;;;;;4.57;4.23;;;18.40;99.90;;;;;;5016161;28;20504;-71
2022/06/29 05:25:44;;;;;;;4.53;4.13;;;18.40;99.90;;;;;;5016443;28;20404;-70
2022/06/29 05:28:11;;;;;;;5.10;4.70;;;18.50;99.90;;;;;;5016523;28;20492;-75
2022/06/29 05:30:37;;;;;;;7.23;5.77;;;18.50;99.90;;;;;;5016519;28;20198;-71
2022/06/29 05:33:03;;;;;;;5.50;4.97;;;18.60;99.90;;;;;;5015465;28;20451;-73
2022/06/29 05:35:33;;;;;;;5.80;5.30;;;18.60;99.90;;;;;;5016334;28;20410;-66
2022/06/29 05:37:58;;;;;;;7.33;5.70;;;18.60;99.90;;;;;;5016311;28;20171;-65
2022/06/29 05:40:24;;;;;;;5.83;5.17;;;18.60;99.90;;;;;;5015946;28;20426;-64
2022/06/29 05:42:50;;;;;;;4.73;4.33;;;18.70;99.90;;;;;;5015466;28;20244;-68
2022/06/29 05:45:16;;;;;;;7.60;6.03;;;18.80;99.90;;;;;;5015568;28;20516;-70
2022/06/29 05:47:41;;;;;;;6.77;4.90;;;18.80;99.90;;;;;;5016042;28;20645;-70
2022/06/29 05:50:10;;;;;;;5.97;5.40;;;18.90;99.90;;;;;;4998096;28;20329;-69
2022/06/29 05:52:36;;;;;;;4.70;4.30;;;19.00;99.90;;;;;;5015445;28;20198;-69
2022/06/29 05:55:03;;;;;;;6.23;5.00;;;19.10;99.90;;;;;;5016031;28;20435;-70
2022/06/29 05:57:28;;;;;;;6.03;4.87;;;19.30;99.90;;;;;;4998319;28;20751;-70
2022/06/29 05:59:54;;;;;;;5.50;5.00;;;19.40;99.90;;;;;;5015918;28;20413;-69
2022/06/29 06:02:20;;;;;;;6.60;6.00;;;19.50;99.90;;;;;;4997835;28;20276;-71
2022/06/29 06:04:45;;;;;;;5.23;4.73;;;19.70;99.90;;;;;;5015173;28;20619;-70
2022/06/29 06:07:11;;;;;;;5.13;4.63;;;19.60;99.90;;;;;;5015912;28;20178;-70
2022/06/29 06:09:36;;;;;;;6.20;4.90;;;19.70;99.90;;;;;;5015797;28;20525;-69
2022/06/29 06:12:02;;;;;;;5.40;4.90;;;19.70;99.90;;;;;;5015327;28;20191;-70
2022/06/29 06:14:28;;;;;;;5.00;4.60;;;19.80;99.90;;;;;;5015655;28;20201;-69
2022/06/29 06:16:54;;;;;;;4.83;4.43;;;19.80;99.90;;;;;;5015738;28;20385;-70
2022/06/29 06:19:19;;;;;;;7.90;5.93;;;20.00;99.90;;;;;;5015767;28;20528;-70
2022/06/29 06:21:45;;;;;;;5.03;4.53;;;20.00;99.90;;;;;;5015505;28;20225;-70
2022/06/29 06:24:11;;;;;;;5.70;5.27;;;20.00;99.90;;;;;;5014852;28;20206;-70
2022/06/29 06:26:37;;;;;;;5.67;4.50;;;20.10;99.90;;;;;;5015783;28;20175;-70
2022/06/29 06:29:02;;;;;;;5.00;4.50;;;20.20;99.90;;;;;;5015545;28;20177;-69
2022/06/29 06:31:28;;;;;;;5.80;5.00;;;20.40;99.90;;;;;;5015206;28;20786;-69
2022/06/29 06:33:54;;;;;;;5.17;4.87;;;20.50;99.90;;;;;;5014960;28;20209;-72
2022/06/29 06:36:20;;;;;;;5.53;5.03;;;20.70;99.90;;;;;;5015544;28;20178;-69
2022/06/29 06:38:45;;;;;;;4.67;4.27;;;20.70;99.90;;;;;;5014979;28;20456;-70
2022/06/29 06:41:23;;;;;;;5.80;5.30;;;20.80;99.90;;;;;;5015293;28;20402;-69
2022/06/29 06:43:58;;;;;;;5.70;5.13;;;21.00;99.90;;;;;;5014585;28;20673;-70
2022/06/29 06:46:24;;;;;;;6.07;5.57;;;21.20;99.90;;;;;;5014977;28;20405;-70
2022/06/29 06:48:51;;;;;;;5.30;4.90;;;21.20;99.90;;;;;;5015049;28;20391;-71
2022/06/29 06:51:21;;;;;;;4.90;4.50;;;21.30;99.90;;;;;;5015072;28;20381;-69
2022/06/29 06:53:47;;;;;;;5.27;4.87;;;21.40;99.90;;;;;;5014183;28;20506;-70
2022/06/29 06:56:16;;;;;;;5.00;4.53;;;21.60;99.90;;;;;;5014529;28;20400;-70
2022/06/29 06:58:42;;;;;;;4.30;3.90;;;21.80;99.90;;;;;;5014838;28;20408;-70
2022/06/29 07:01:09;;;;;;;6.93;4.87;;;22.00;99.90;;;;;;5014889;28;20381;-69
2022/06/29 07:03:38;;;;;;;4.50;4.10;;;22.10;99.90;;;;;;4996723;28;20507;-69
2022/06/29 07:06:09;;;;;;;5.67;5.27;;;22.20;99.90;;;;;;5014599;28;20425;-69
2022/06/29 07:08:36;;;;;;;4.70;4.30;;;22.30;99.90;;;;;;5014239;28;20413;-70
2022/06/29 07:11:04;;;;;;;5.03;4.63;;;22.40;99.90;;;;;;5014520;28;20900;-70
2022/06/29 07:13:33;;;;;;;5.13;4.73;;;22.50;99.90;;;;;;5013820;28;20442;-70
2022/06/29 07:15:59;;;;;;;5.13;4.73;;;22.60;99.90;;;;;;5014374;28;20429;-70
2022/06/29 07:18:25;;;;;;;5.30;4.80;;;22.70;99.90;;;;;;5014402;28;20497;-70
2022/06/29 07:20:51;;;;;;;4.40;4.10;;;22.80;99.90;;;;;;5014584;28;20873;-70
2022/06/29 07:23:17;;;;;;;5.60;4.77;;;22.90;99.90;;;;;;5013702;28;20189;-70
2022/06/29 07:25:42;;;;;;;6.37;5.90;;;22.90;99.90;;;;;;5014247;28;20454;-69
2022/06/29 07:28:08;;;;;;;4.10;3.70;;;23.00;99.90;;;;;;4997104;28;20482;-70
2022/06/29 07:30:34;;;;;;;5.17;4.77;;;23.10;99.90;;;;;;5014222;28;20183;-70
2022/06/29 07:33:00;;;;;;;5.17;4.77;;;23.40;99.90;;;;;;5013709;28;20230;-69
2022/06/29 07:35:26;;;;;;;7.40;4.53;;;23.70;99.90;;;;;;5014140;28;20164;-70
2022/06/29 07:37:52;;;;;;;5.17;4.77;;;;;;;;;;5013864;28;20740;-70
2022/06/29 07:40:18;;;;;;;4.53;4.13;;;24.20;99.90;;;;;;5013796;28;20464;-69
2022/06/29 07:42:44;;;;;;;5.47;5.07;;;25.50;99.90;;;;;;5013798;28;20395;-70
2022/06/29 07:45:10;;;;;;;4.63;4.33;;;26.30;99.90;;;;;;5014133;28;20404;-68
2022/06/29 07:47:36;;;;;;;4.60;4.23;;;27.10;99.90;;;;;;4996361;28;20175;-68
2022/06/29 07:50:03;;;;;;;5.40;5.00;;;28.00;99.70;;;;;;5013971;28;20413;-68
2022/06/29 07:52:28;;;;;;;4.13;3.87;;;29.10;98.20;;;;;;5013271;28;20191;-69
2022/06/29 07:54:54;;;;;;;5.50;5.00;;;30.10;96.10;;;;;;5013788;28;20425;-70
2022/06/29 07:57:19;;;;;;;4.87;4.57;;;31.00;92.90;;;;;;5013922;28;20537;-70
2022/06/29 07:59:46;;;;;;;4.90;4.53;;;31.50;92.40;;;;;;5013937;28;20175;-70
2022/06/29 08:02:12;;;;;;;5.03;4.73;;;32.10;91.00;;;;;;4995779;28;20179;-69
2022/06/29 08:04:38;;;;;;;5.37;4.90;;;32.70;90.50;;;;;;5013440;28;20457;-71
2022/06/29 08:07:04;;;;;;;4.30;4.00;;;33.40;87.40;;;;;;5012920;28;20179;-67
2022/06/29 08:09:29;;;;;;;5.10;4.80;;;34.00;85.80;;;;;;5013408;28;20183;-70
2022/06/29 08:11:55;;;;;;;4.20;4.00;;;34.70;81.90;;;;;;5013572;28;20206;-70
2022/06/29 08:14:21;;;;;;;6.23;5.80;;;35.20;81.70;;;;;;5012901;28;20190;-69
2022/06/29 08:16:47;;;;;;;6.30;5.03;;;35.90;79.20;;;;;;5013688;28;20914;-69
2022/06/29 08:19:12;;;;;;;5.00;4.27;;;36.40;77.00;;;;;;5013550;28;20182;-69
2022/06/29 08:21:38;;;;;;;4.80;4.50;;;36.70;75.30;;;;;;5013698;28;20190;-70
2022/06/29 08:24:04;;;;;;;4.23;4.03;;;37.20;71.50;;;;;;5013060;28;20190;-71
2022/06/29 08:26:29;;;;;;;5.10;4.80;;;37.30;70.90;;;;;;5013623;28;20633;-70
2022/06/29 08:28:55;;;;;;;4.67;4.37;;;37.30;68.90;;;;;;5013187;28;20683;-70
2022/06/29 08:31:21;;;;;;;4.00;3.80;;;37.60;67.90;;;;;;5013363;28;20249;-70
2022/06/29 08:33:46;;;;;;;5.20;4.80;;;37.60;67.40;;;;;;5013123;28;20194;-70
2022/06/29 08:36:12;;;;;;;5.30;5.00;;;37.60;67.50;;;;;;5013654;28;20182;-70
2022/06/29 08:38:39;;;;;;;4.87;4.63;;;37.60;67.00;;;;;;5013466;28;20266;-70
2022/06/29 08:41:05;;;;;;;4.60;4.20;;;37.50;66.90;;;;;;5013361;28;20183;-70
2022/06/29 08:43:31;;;;;;;4.73;4.40;;;37.50;66.50;;;;;;5012858;28;20453;-70
2022/06/29 08:45:57;;;;;;;4.07;3.87;;;37.30;66.10;;;;;;5013487;28;20418;-70
2022/06/29 08:48:23;;;;;;;4.77;4.47;;;37.40;66.40;;;;;;5013481;28;20521;-69
2022/06/29 08:50:53;;;;;;;4.30;4.00;;;37.70;64.50;;;;;;5013319;28;20410;-69
2022/06/29 08:53:20;;;;;;;4.50;4.30;;;37.80;64.00;;;;;;5012761;28;20202;-69
2022/06/29 08:55:48;;;;;;;3.70;3.40;;;37.50;64.10;;;;;;4996181;28;20409;-69
2022/06/29 08:58:22;;;;;;;4.10;3.80;;;37.20;65.20;;;;;;5012838;28;20418;-69
2022/06/29 09:00:51;;;;;;;3.73;3.53;;;37.20;64.00;;;;;;5013251;28;20448;-68
2022/06/29 09:03:22;;;;;;;4.67;4.37;;;37.40;63.50;;;;;;5012623;28;20505;-69
2022/06/29 09:05:49;;;;;;;3.60;3.40;;;37.60;64.30;;;;;;4995404;28;20429;-70
2022/06/29 09:08:16;;;;;;;4.50;4.20;;;37.90;64.10;;;;;;5013257;28;20920;-69
2022/06/29 09:10:42;;;;;;;3.97;3.77;;;38.30;62.10;;;;;;5013128;28;20445;-68
2022/06/29 09:13:08;;;;;;;6.00;5.60;;;38.70;62.70;;;;;;5012297;28;20493;-69
2022/06/29 09:15:38;;;;;;;4.33;3.93;;;39.20;61.90;;;;;;5012925;28;20591;-69
2022/06/29 09:18:23;;;;;;;4.10;3.90;;;39.60;60.00;;;;;;5014159;28;20963;-68
2022/06/29 09:20:54;;;;;;;6.23;5.83;;;39.70;59.90;;;;;;5017284;28;20410;-69
2022/06/29 09:23:20;;;;;;;4.10;3.90;;;39.90;59.00;;;;;;5016253;28;20534;-68
2022/06/29 09:25:46;;;;;;;4.10;3.90;;;40.30;58.80;;;;;;5016274;28;20524;-69
2022/06/29 09:28:25;;;;;;;4.37;4.17;;;40.70;56.80;;;;;;5016768;28;20177;-69
2022/06/29 09:30:55;;;;;;;3.77;3.57;;;40.50;56.60;;;;;;5016773;28;20166;-69
2022/06/29 09:33:22;;;;;;;4.20;4.00;;;40.30;56.80;;;;;;5015980;28;20460;-69
2022/06/29 09:36:11;;;;;;;3.90;3.70;;;39.60;56.50;;;;;;5016635;28;20422;-68
2022/06/29 09:38:37;;;;;;;3.73;3.53;;;38.40;57.70;;;;;;5016550;28;20438;-69
2022/06/29 09:41:04;;;;;;;3.70;3.40;;;37.20;59.20;;;;;;5015963;28;20455;-68
2022/06/29 09:43:31;;;;;;;4.20;3.90;;;36.10;61.50;;;;;;5015904;28;20505;-69
2022/06/29 09:45:58;;;;;;;4.53;4.23;;;35.60;63.90;;;;;;5016413;28;20903;-69
2022/06/29 09:48:28;;;;;;;5.03;4.60;;;35.60;66.20;;;;;;5016333;28;20398;-69
2022/06/29 09:50:55;;;;;;;2.57;2.47;;;35.60;66.40;;;;;;5016316;28;20493;-69
2022/06/29 09:53:27;;;;;;;4.23;3.93;;;35.30;65.90;;;;;;5015315;28;20819;-70
2022/06/29 09:55:56;;;;;;;4.10;3.80;;;34.70;64.80;;;;;;4996456;28;20469;-70
2022/06/29 09:58:56;;;;;;;4.40;4.10;;;34.00;66.30;;;;;;4996300;28;20389;-70
2022/06/29 10:04:08;;;;;;;3.47;3.27;;;32.80;68.90;;;;;;4996148;28;20421;-67
2022/06/29 10:06:33;;;;;;;4.73;4.33;;;32.30;70.20;;;;;;4996119;28;20396;-70
2022/06/29 10:09:01;;;;;;;5.67;3.67;;;31.90;71.00;;;;;;5003516;28;20426;-69
2022/06/29 10:14:43;;;;;;;4.20;3.90;;;31.20;73.40;;;;;;5015148;28;20428;-70
2022/06/29 10:17:30;;;;;;;4.20;3.90;;;30.80;75.70;;;;;;5015407;28;20414;-69
2022/06/29 10:20:35;;;;;;;5.43;3.80;;;30.50;76.40;;;;;;5015527;28;20504;-73
2022/06/29 10:23:01;;;;;;;4.03;3.73;;;30.20;77.90;;;;;;4997108;28;20912;-72
2022/06/29 10:25:27;;;;;;;3.60;3.30;;;29.80;79.30;;;;;;5015438;28;20416;-70
2022/06/29 10:28:16;;;;;;;4.00;3.77;;;29.80;80.60;;;;;;5015226;28;20414;-74
2022/06/29 10:30:42;;;;;;;4.40;3.93;;;30.30;80.10;;;;;;5014524;28;20170;-73
2022/06/29 10:33:34;;;;;;;4.80;3.73;;;31.00;79.00;;;;;;5014464;28;20480;-72
2022/06/29 10:36:06;;;;;;;3.80;3.50;;;31.20;76.90;;;;;;5015491;28;20459;-67
2022/06/29 10:38:58;;;;;;;4.17;3.87;;;31.70;77.00;;;;;;5015333;28;20401;-71
2022/06/29 10:44:08;;;;;;;3.93;3.53;;;32.40;74.60;;;;;;5014416;28;20440;-70
2022/06/29 10:47:03;;;;;;;3.80;3.60;;;32.70;75.20;;;;;;5014716;28;20422;-70
2022/06/29 10:49:29;;;;;;;4.07;3.80;;;33.10;71.80;;;;;;4994109;28;20483;-72
2022/06/29 10:51:57;;;;;;;3.77;3.47;;;33.60;71.00;;;;;;5014871;28;20445;-71
2022/06/29 10:54:23;;;;;;;3.60;3.30;;;34.00;70.10;;;;;;5014250;28;20191;-72
2022/06/29 10:56:49;;;;;;;3.67;3.37;;;34.30;68.20;;;;;;5014632;28;20398;-71
2022/06/29 10:59:39;;;;;;;3.63;3.23;;;34.50;67.40;;;;;;5014664;28;20472;-70
2022/06/29 11:02:13;;;;;;;4.40;4.00;;;34.70;66.80;;;;;;5014350;28;20649;-70
2022/06/29 11:04:40;;;;;;;3.67;3.37;;;34.80;67.80;;;;;;5014446;28;20816;-70
2022/06/29 11:12:54;;;;;;;3.00;2.80;;;34.60;66.40;;;;;;5005233;28;20496;-72
2022/06/29 11:15:41;;;;;;;3.77;3.47;;;34.80;67.00;;;;;;5011491;28;20454;-70
2022/06/29 11:18:11;;;;;;;3.70;3.50;;;34.60;65.20;;;;;;5014598;28;20761;-71
2022/06/29 11:20:38;;;;;;;3.83;3.53;;;34.00;67.10;;;;;;5014611;28;20409;-71
2022/06/29 11:23:07;;;;;;;4.67;4.27;;;33.40;68.70;;;;;;5013804;28;20416;-73
2022/06/29 11:25:37;;;;;;;4.00;3.70;;;32.80;68.70;;;;;;5014209;28;20402;-72
2022/06/29 11:28:04;;;;;;;3.33;3.13;;;32.30;70.00;;;;;;5013935;28;20459;-72
2022/06/29 11:30:30;;;;;;;3.50;3.30;;;32.00;72.00;;;;;;5014399;28;20388;-70
2022/06/29 11:32:56;;;;;;;3.80;3.60;;;31.60;76.10;;;;;;5013675;28;20432;-71
2022/06/29 11:35:24;;;;;;;5.63;3.17;;;31.40;76.60;;;;;;5013941;28;20894;-72
2022/06/29 11:38:05;;;;;;;3.23;3.03;;;31.10;77.30;;;;;;5002326;28;20410;-71
2022/06/29 11:40:42;;;;;;;3.60;3.40;;;30.80;79.70;;;;;;4994550;28;20373;-72
2022/06/29 11:43:08;;;;;;;3.73;3.33;;;30.40;79.80;;;;;;5005991;28;20453;-72
2022/06/29 11:45:46;;;;;;;3.83;3.53;;;30.20;81.30;;;;;;5013901;28;20405;-73
2022/06/29 11:48:19;;;;;;;3.53;3.23;;;30.10;80.30;;;;;;5014006;28;20505;-74
2022/06/29 11:50:46;;;;;;;3.83;3.53;;;30.00;80.40;;;;;;5014034;28;20443;-73
2022/06/29 11:53:13;;;;;;;3.73;3.40;;;29.90;81.20;;;;;;4995480;28;20475;-74
2022/06/29 11:55:44;;;;;;;3.63;3.40;;;30.00;82.50;;;;;;4996272;28;20807;-72
2022/06/29 11:58:15;;;;;;;4.33;3.93;;;30.10;82.20;;;;;;5013509;28;20397;-69
2022/06/29 12:00:43;;;;;;;4.30;3.70;;;30.00;82.50;;;;;;5014058;28;20361;-69
2022/06/29 12:03:12;;;;;;;4.07;3.77;;;29.90;81.40;;;;;;5013394;28;20406;-71
2022/06/29 12:05:57;;;;;;;3.73;3.43;;;29.90;82.50;;;;;;5013601;28;20430;-71
2022/06/29 12:08:23;;;;;;;4.40;4.00;;;29.90;84.50;;;;;;5013731;28;20380;-68
2022/06/29 12:10:48;;;;;;;5.13;4.73;;;29.90;85.40;;;;;;5013344;28;20388;-66
2022/06/29 12:13:14;;;;;;;3.60;3.30;;;30.00;84.10;;;;;;5012940;28;20211;-68
2022/06/29 12:15:39;;;;;;;3.70;3.40;;;29.90;84.20;;;;;;5013590;28;20163;-67
2022/06/29 12:18:05;;;;;;;4.10;3.80;;;29.80;85.10;;;;;;5013625;28;20171;-67
2022/06/29 12:20:31;;;;;;;4.27;3.97;;;29.70;85.30;;;;;;5013241;28;20202;-67
2022/06/29 12:22:57;;;;;;;4.43;4.00;;;29.80;85.30;;;;;;4995493;28;20393;-68
2022/06/29 12:25:22;;;;;;;4.47;3.90;;;29.90;84.70;;;;;;5013584;28;20171;-67
2022/06/29 12:27:48;;;;;;;5.50;3.83;;;30.00;83.70;;;;;;5013694;28;20189;-67
2022/06/29 12:30:14;;;;;;;3.07;2.87;;;30.10;83.60;;;;;;5013421;28;20179;-68
2022/06/29 12:32:40;;;;;;;5.80;3.60;;;30.30;83.50;;;;;;5013046;28;20793;-66
2022/06/29 12:35:06;;;;;;;4.63;4.33;;;30.40;82.10;;;;;;5012821;28;20202;-68
2022/06/29 12:37:31;;;;;;;4.10;3.70;;;30.40;83.10;;;;;;5013219;28;20242;-67
2022/06/29 12:39:57;;;;;;;4.00;3.70;;;30.30;82.30;;;;;;5012964;28;20402;-67
2022/06/29 12:42:23;;;;;;;3.37;3.07;;;30.40;82.20;;;;;;4995115;28;20186;-67
2022/06/29 12:44:49;;;;;;;4.23;3.63;;;30.60;84.10;;;;;;5013079;28;20191;-67
2022/06/29 12:47:15;;;;;;;3.53;3.23;;;30.60;83.00;;;;;;5013723;28;20178;-67
2022/06/29 12:49:41;;;;;;;3.90;3.60;;;30.60;81.50;;;;;;5013192;28;20412;-67
2022/06/29 12:52:07;;;;;;;3.93;3.63;;;30.30;81.60;;;;;;5013044;28;20246;-68
2022/06/29 12:54:32;;;;;;;3.53;3.23;;;30.00;78.40;;;;;;5016738;28;20553;-67
2022/06/29 12:56:58;;;;;;;4.33;3.93;;;29.70;80.40;;;;;;5017118;28;20402;-68
2022/06/29 12:59:23;;;;;;;4.10;3.70;;;29.50;84.30;;;;;;5017077;28;20175;-68
2022/06/29 13:01:51;;;;;;;4.10;3.80;;;29.30;83.30;;;;;;5017136;28;20167;-67
2022/06/29 13:04:17;;;;;;;4.30;3.87;;;29.20;85.50;;;;;;5016386;28;20688;-68
2022/06/29 13:06:43;;;;;;;3.30;3.10;;;29.10;83.90;;;;;;5017046;28;20433;-67
2022/06/29 13:09:09;;;;;;;3.83;3.63;;;29.10;86.90;;;;;;5017055;28;20442;-67
2022/06/29 13:11:35;;;;;;;3.83;3.53;;;28.90;86.60;;;;;;5016962;28;20191;-68
2022/06/29 13:14:01;;;;;;;3.70;3.40;;;28.70;85.00;;;;;;5016585;28;20194;-68
2022/06/29 13:16:27;;;;;;;3.70;3.23;;;28.50;87.60;;;;;;5016956;28;20922;-67
2022/06/29 13:18:53;;;;;;;4.30;4.00;;;28.40;87.20;;;;;;5016677;28;20524;-68
2022/06/29 13:21:19;;;;;;;4.30;4.00;;;28.40;86.20;;;;;;5016928;28;20202;-68
2022/06/29 13:23:44;;;;;;;4.67;4.27;;;28.30;87.10;;;;;;5016145;28;20909;-68
2022/06/29 13:26:11;;;;;;;4.63;4.00;;;28.30;87.60;;;;;;5017007;28;20194;-68
2022/06/29 13:28:42;;;;;;;4.30;3.90;;;28.30;86.80;;;;;;5016741;28;20184;-68
2022/06/29 13:31:11;;;;;;;4.27;3.87;;;28.20;87.50;;;;;;5016500;28;20457;-68
2022/06/29 13:33:37;;;;;;;4.10;3.80;;;28.00;88.40;;;;;;4998387;28;20464;-67
2022/06/29 13:36:04;;;;;;;3.50;3.20;;;27.90;89.40;;;;;;5016627;28;20822;-68
2022/06/29 13:38:29;;;;;;;4.00;3.50;;;27.80;90.30;;;;;;5016390;28;20391;-69
2022/06/29 13:40:55;;;;;;;3.50;3.30;;;27.90;88.60;;;;;;5016537;28;20441;-68
2022/06/29 13:43:21;;;;;;;3.50;3.30;;;27.90;89.70;;;;;;5015956;28;20624;-67
2022/06/29 13:45:46;;;;;;;3.67;3.37;;;28.10;90.20;;;;;;5015931;28;20190;-68
2022/06/29 13:48:12;;;;;;;3.00;2.80;;;28.20;89.70;;;;;;5016275;28;20429;-68
2022/06/29 13:50:38;;;;;;;3.20;3.00;;;28.40;87.50;;;;;;5016315;28;20640;-69
2022/06/29 13:53:04;;;;;;;3.40;3.17;;;28.60;88.20;;;;;;5015673;28;20217;-67
2022/06/29 13:55:30;;;;;;;3.80;3.50;;;28.80;88.70;;;;;;5015803;28;20421;-67
2022/06/29 13:57:56;;;;;;;3.70;3.40;;;28.80;89.30;;;;;;5016048;28;20660;-68
2022/06/29 14:00:21;;;;;;;2.93;2.73;;;28.80;85.90;;;;;;5016220;28;20407;-67
2022/06/29 14:02:47;;;;;;;3.60;3.33;;;28.70;88.30;;;;;;5015556;28;20175;-68
2022/06/29 14:05:13;;;;;;;3.40;3.17;;;28.70;87.30;;;;;;5014683;28;20218;-68
2022/06/29 14:07:38;;;;;;;3.40;3.17;;;28.70;84.80;;;;;;5015991;28;20178;-68
2022/06/29 14:10:04;;;;;;;3.90;3.60;;;28.80;85.40;;;;;;5015570;28;20179;-68
2022/06/29 14:12:30;;;;;;;3.30;3.00;;;28.80;86.30;;;;;;5015397;28;20542;-68
2022/06/29 14:14:56;;;;;;;3.03;2.83;;;28.90;86.60;;;;;;5015710;28;20504;-68
2022/06/29 14:17:21;;;;;;;6.53;3.33;;;29.00;86.00;;;;;;5015800;28;20163;-67
2022/06/29 14:19:47;;;;;;;4.70;3.40;;;29.00;85.90;;;;;;5015741;28;20199;-68
2022/06/29 14:22:12;;;;;;;3.10;2.90;;;28.90;85.70;;;;;;5015384;28;20203;-68
2022/06/29 14:24:38;;;;;;;3.90;3.27;;;28.80;85.60;;;;;;5015216;28;20660;-66
2022/06/29 14:27:04;;;;;;;3.70;3.40;;;28.70;84.50;;;;;;5015782;28;20171;-66
2022/06/29 14:29:30;;;;;;;6.07;3.33;;;28.60;85.20;;;;;;5015528;28;20170;-66
2022/06/29 14:31:55;;;;;;;3.70;3.40;;;28.60;87.40;;;;;;5015483;28;20191;-67
2022/06/29 14:34:21;;;;;;;5.30;3.53;;;28.70;87.00;;;;;;5014785;28;20225;-67
2022/06/29 14:36:46;;;;;;;3.60;3.40;;;28.80;88.10;;;;;;5015459;28;20205;-68
2022/06/29 14:39:12;;;;;;;3.80;3.50;;;28.80;88.40;;;;;;5015195;28;20225;-67
2022/06/29 14:41:38;;;;;;;3.03;2.83;;;28.90;87.70;;;;;;5015116;28;20263;-67
2022/06/29 14:44:03;;;;;;;3.70;3.40;;;29.10;87.60;;;;;;5017126;28;20195;-66
2022/06/29 14:46:29;;;;;;;3.30;2.87;;;29.10;87.50;;;;;;5004707;28;20176;-68
2022/06/29 14:48:55;;;;;;;3.60;3.30;;;29.10;87.00;;;;;;4995517;28;20195;-69
2022/06/29 14:51:20;;;;;;;5.03;4.63;;;29.00;86.70;;;;;;5031244;28;20178;-68
2022/06/29 14:53:46;;;;;;;5.50;5.00;;;29.00;86.10;;;;;;5030213;28;20196;-67
2022/06/29 14:56:13;;;;;;;4.00;3.70;;;28.80;87.70;;;;;;5034862;28;20573;-67
2022/06/29 14:58:38;;;;;;;6.10;5.60;;;28.70;88.10;;;;;;5034785;28;20170;-68
2022/06/29 15:01:04;;;;;;;4.70;4.20;;;28.50;88.70;;;;;;5034769;28;20375;-68
2022/06/29 15:03:29;;;;;;;4.47;4.07;;;28.30;90.50;;;;;;5028833;28;20201;-68
2022/06/29 15:05:55;;;;;;;4.80;4.50;;;28.20;90.70;;;;;;5018161;28;20230;-67
2022/06/29 15:08:21;;;;;;;4.30;3.90;;;28.10;90.40;;;;;;5014361;28;20182;-69
2022/06/29 15:10:47;;;;;;;4.37;3.97;;;27.80;90.00;;;;;;5014624;28;20643;-68
2022/06/29 15:13:12;;;;;;;4.10;3.80;;;27.70;90.30;;;;;;5027870;28;20718;-67
2022/06/29 15:15:41;;;;;;;3.50;3.30;;;27.60;90.60;;;;;;5014164;28;20205;-67
2022/06/29 15:18:07;;;;;;;4.47;4.10;;;27.50;90.70;;;;;;5014356;28;20268;-69
2022/06/29 15:20:32;;;;;;;4.47;4.17;;;27.40;90.70;;;;;;5014446;28;20417;-67
2022/06/29 15:22:58;;;;;;;5.13;4.63;;;27.30;90.80;;;;;;5021632;28;20209;-69
2022/06/29 15:25:24;;;;;;;6.43;5.83;;;27.30;91.30;;;;;;4996650;28;20300;-68
2022/06/29 15:27:49;;;;;;;6.70;4.80;;;27.30;92.10;;;;;;5014523;28;20172;-66
2022/06/29 15:30:15;;;;;;;5.90;4.10;;;27.30;92.10;;;;;;5026173;28;20175;-66
2022/06/29 15:32:42;;;;;;;4.37;4.07;;;27.30;92.10;;;;;;5033278;28;20197;-68
2022/06/29 15:40:36;;;;;;;4.00;3.70;;;27.30;92.10;;;;;;5027419;28;20471;-69
2022/06/29 15:43:02;;;;;;;4.07;3.77;;;27.40;92.20;;;;;;5028175;28;20487;-70
2022/06/29 15:45:27;;;;;;;3.37;3.17;;;27.40;92.10;;;;;;5033279;28;20254;-66
2022/06/29 15:47:53;;;;;;;4.47;4.07;;;27.50;91.70;;;;;;5033625;28;20182;-69
2022/06/29 15:50:19;;;;;;;4.27;3.97;;;27.60;92.00;;;;;;5033896;28;20172;-67
2022/06/29 15:52:44;;;;;;;4.33;4.03;;;27.60;91.50;;;;;;5020424;28;20210;-69
2022/06/29 15:57:54;;;;;;;4.00;3.50;;;27.60;91.30;;;;;;5013903;28;20176;-68
2022/06/29 16:00:20;;;;;;;3.90;3.70;;;27.60;91.60;;;;;;4996273;28;20399;-66
2022/06/29 16:02:46;;;;;;;4.20;4.00;;;27.60;91.50;;;;;;5013513;28;20227;-67
2022/06/29 16:05:12;;;;;;;4.60;3.80;;;27.40;91.30;;;;;;5013630;28;20553;-66
2022/06/29 16:07:38;;;;;;;10.87;7.00;;;27.30;91.40;;;;;;5013529;28;20243;-66
2022/06/29 16:10:04;;;;;;;4.53;4.23;;;27.30;92.00;;;;;;5013746;28;20776;-69
2022/06/29 16:12:29;;;;;;;4.60;4.27;;;27.20;92.10;;;;;;5013464;28;20318;-67
2022/06/29 16:14:55;;;;;;;4.53;3.80;;;27.20;92.00;;;;;;5013757;28;20435;-65
2022/06/29 16:17:21;;;;;;;3.80;3.60;;;27.20;91.80;;;;;;5013787;28;20175;-66
2022/06/29 16:19:47;;;;;;;4.73;4.23;;;27.20;91.50;;;;;;5014051;28;20640;-67
2022/06/29 16:22:13;;;;;;;4.07;3.77;;;27.20;91.70;;;;;;5012972;28;20229;-64
2022/06/29 16:24:40;;;;;;;3.87;3.50;;;27.20;91.60;;;;;;5013286;28;20432;-67
2022/06/29 16:27:07;;;;;;;4.20;3.90;;;27.20;92.30;;;;;;5013305;28;20871;-68
2022/06/29 16:29:33;;;;;;;4.10;3.80;;;27.20;92.30;;;;;;5012949;28;20380;-66
2022/06/29 16:31:59;;;;;;;4.30;4.00;;;27.20;92.00;;;;;;5013214;28;20542;-67
2022/06/29 16:34:25;;;;;;;4.00;3.70;;;27.20;91.80;;;;;;5013114;28;20908;-66
2022/06/29 16:36:50;;;;;;;4.83;4.50;;;27.10;91.50;;;;;;5013448;28;20179;-67
2022/06/29 16:39:16;;;;;;;4.10;3.80;;;27.20;91.80;;;;;;4995476;28;20187;-66
2022/06/29 16:41:42;;;;;;;3.70;3.40;;;27.10;91.70;;;;;;5013401;28;20182;-68
2022/06/29 16:44:08;;;;;;;3.90;3.60;;;27.20;91.80;;;;;;5013051;28;20669;-69
2022/06/29 16:46:35;;;;;;;4.43;3.53;;;27.20;91.70;;;;;;5013441;28;20490;-68
2022/06/29 16:49:01;;;;;;;4.60;3.43;;;27.10;91.50;;;;;;5013479;28;20380;-69
2022/06/29 16:51:27;;;;;;;4.20;3.90;;;27.10;91.60;;;;;;5006918;28;20409;-69
2022/06/29 16:53:53;;;;;;;4.23;3.90;;;27.20;91.70;;;;;;4988132;28;20420;-69
2022/06/29 16:56:18;;;;;;;4.63;4.17;;;27.20;91.90;;;;;;5001355;28;20179;-68
2022/06/29 16:58:44;;;;;;;3.80;3.50;;;27.20;91.40;;;;;;5001993;28;20177;-69
2022/06/29 17:01:10;;;;;;;4.90;4.50;;;27.30;91.20;;;;;;5005885;28;20190;-71
2022/06/29 17:03:35;;;;;;;55.23;39.77;;;27.40;91.60;;;;;;5012393;28;20230;-68
2022/06/29 17:06:01;;;;;;;7.70;7.00;;;27.50;91.90;;;;;;5013119;28;20209;-70
2022/06/29 17:08:27;;;;;;;5.87;4.10;;;27.50;91.40;;;;;;5013466;28;20211;-68
2022/06/29 17:10:52;;;;;;;4.10;3.80;;;27.50;91.40;;;;;;5013036;28;20548;-70
2022/06/29 17:13:18;;;;;;;3.80;3.53;;;27.50;91.40;;;;;;4988469;28;20695;-67
2022/06/29 17:15:44;;;;;;;3.63;3.43;;;27.60;91.30;;;;;;5000828;28;20177;-68